Annandale, Pennsylvania
Current Conditions -  °F | °C
As of 1:35 PM on Saturday 25 Oct 2014 (Local Time) from KFKL Reporting Station
Broken Clouds Broken Clouds  
Wind Chill: 17°   Ceiling: 4000
Heat Index: 17°   Visibility: 10mi
Dew Point:   Wind: 12mph
Humidity: 55%   Direction: 250°WSW
Pressure: 29.8"   Gusts: 23mph
Location:  41.1142°N, 79.9031°W
Report Text: KFKL 251735Z 25010G20KT 10SM BKN040 BKN049 17/08 A2980 RMK AO1
Loading
Personal Weather Stations






























Interactive Weather Map
Tropical Storm Tracking
New forecast layout! Learn more

10-Day Weather Forecast

Advertisements
Track Severe Weather on mobile